Time;durP1;ratioP1;P1;durP2;ratioP2;P2;SDS_P1;SDS_P2;PMS_P1;PMS_P2;Temp;Humidity;BMP_temperature;BMP_pressure;BME280_temperature;BME280_humidity;BME280_pressure;Samples;Min_cycle;Max_cycle;Signal;HPM_P1;HPM_P2
2022/08/04 00:00:52;;;;;;;1.90;1.50;;;;;;;;;;4547232;28;20572;-58
2022/08/04 00:03:13;;;;;;;2.78;1.33;;;;;;;;;;4532773;28;20132;-58
2022/08/04 00:05:33;;;;;;;2.00;1.60;;;;;;;;;;4530043;28;20159;-57
2022/08/04 00:07:55;;;;;;;2.20;1.27;;;;;;;;;;4548626;28;20058;-58
2022/08/04 00:10:07;;;;;;;2.25;1.30;;;;;;;;;;4548546;28;20588;-58
2022/08/04 00:12:19;;;;;;;3.53;1.40;;;;;;;;;;4547168;28;20757;-58
2022/08/04 00:14:34;;;;;;;2.30;1.50;;;;;;;;;;4549104;28;20247;-58
2022/08/04 00:16:47;;;;;;;2.00;1.50;;;;;;;;;;4546958;28;20037;-58
2022/08/04 00:19:01;;;;;;;2.20;1.60;;;;;;;;;;4531241;28;20615;-57
2022/08/04 00:21:15;;;;;;;2.08;1.60;;;;;;;;;;4529674;28;20580;-58
2022/08/04 00:23:26;;;;;;;3.03;1.80;;;;;;;;;;4534109;28;20658;-57
2022/08/04 00:25:40;;;;;;;2.30;1.45;;;;;;;;;;4527878;28;20037;-57
2022/08/04 00:27:52;;;;;;;2.10;1.80;;;;;;;;;;4528471;28;21392;-57
2022/08/04 00:30:04;;;;;;;2.80;1.50;;;;;;;;;;4530078;28;20592;-58
2022/08/04 00:32:16;;;;;;;1.95;1.38;;;;;;;;;;4545973;28;20040;-58
2022/08/04 00:34:28;;;;;;;2.60;1.60;;;;;;;;;;4530648;28;20053;-57
2022/08/04 00:36:40;;;;;;;2.05;1.45;;;;;;;;;;4533363;28;20673;-58
2022/08/04 00:38:51;;;;;;;1.52;1.35;;;;;;;;;;4532146;28;20033;-58
2022/08/04 00:41:24;;;;;;;1.92;1.40;;;;;;;;;;4513228;28;20503;-58
2022/08/04 00:43:51;;;;;;;1.88;1.50;;;;;;;;;;4545293;28;20044;-58
2022/08/04 00:46:17;;;;;;;2.22;1.40;;;;;;;;;;4533745;28;20045;-58
2022/08/04 00:48:51;;;;;;;2.30;1.60;;;;;;;;;;4534634;28;20044;-58
2022/08/04 00:51:10;;;;;;;2.15;1.55;;;;;;;;;;4521991;28;20044;-58
2022/08/04 00:53:38;;;;;;;2.08;1.55;;;;;;;;;;4529121;28;20061;-58
2022/08/04 00:56:15;;;;;;;2.17;1.50;;;;;;;;;;4539094;28;20025;-58
2022/08/04 00:58:38;;;;;;;2.80;1.65;;;;;;;;;;4528939;28;20898;-58
2022/08/04 01:01:01;;;;;;;3.22;1.73;;;;;;;;;;4547786;28;20131;-57
2022/08/04 01:03:18;;;;;;;3.22;2.03;;;;;;;;;;4548301;28;20029;-58
2022/08/04 01:05:48;;;;;;;2.60;1.60;;;;;;;;;;4522384;28;20140;-58
2022/08/04 01:08:20;;;;;;;2.90;1.38;;;;;;;;;;4546795;28;20037;-58
2022/08/04 01:11:08;;;;;;;2.15;1.60;;;;;;;;;;4538804;28;20032;-58
2022/08/04 01:13:33;;;;;;;1.80;1.40;;;;;;;;;;4548278;28;20600;-57
2022/08/04 01:16:04;;;;;;;2.08;1.40;;;;;;;;;;4532425;28;20176;-57
2022/08/04 01:18:24;;;;;;;1.65;1.30;;;;;;;;;;4548012;28;20528;-58
2022/08/04 01:20:43;;;;;;;2.95;1.70;;;;;;;;;;4532631;28;20041;-58
2022/08/04 01:23:05;;;;;;;1.95;1.48;;;;;;;;;;4532886;28;20846;-57
2022/08/04 01:25:34;;;;;;;2.08;1.55;;;;;;;;;;4546098;28;20033;-56
2022/08/04 01:28:02;;;;;;;1.92;1.60;;;;;;;;;;4538375;28;20087;-58
2022/08/04 01:30:12;;;;;;;2.85;1.60;;;;;;;;;;4532593;28;20646;-57
2022/08/04 01:32:37;;;;;;;1.98;1.65;;;;;;;;;;4528034;28;20040;-57
2022/08/04 01:34:55;;;;;;;2.35;1.60;;;;;;;;;;4546934;28;20132;-57
2022/08/04 01:37:18;;;;;;;2.67;1.38;;;;;;;;;;4529205;28;20087;-58
2022/08/04 01:39:40;;;;;;;2.97;1.55;;;;;;;;;;4546987;28;20041;-60
2022/08/04 01:41:52;;;;;;;1.80;1.50;;;;;;;;;;4538376;28;20196;-60
2022/08/04 01:44:03;;;;;;;1.83;1.50;;;;;;;;;;4546080;28;20114;-61
2022/08/04 01:46:15;;;;;;;2.47;1.40;;;;;;;;;;4530936;28;20025;-62
2022/08/04 01:48:27;;;;;;;2.22;1.50;;;;;;;;;;4548141;28;20037;-58
2022/08/04 01:50:38;;;;;;;1.90;1.60;;;;;;;;;;4545664;28;20065;-59
2022/08/04 01:52:52;;;;;;;1.98;1.58;;;;;;;;;;4533282;28;20152;-58
2022/08/04 01:55:09;;;;;;;2.50;1.70;;;;;;;;;;4532122;28;20121;-58
2022/08/04 01:57:19;;;;;;;1.60;1.40;;;;;;;;;;4532686;28;20044;-58
2022/08/04 01:59:30;;;;;;;2.15;1.70;;;;;;;;;;4527986;28;20048;-57
2022/08/04 02:01:41;;;;;;;1.83;1.50;;;;;;;;;;4546591;28;20029;-58
2022/08/04 02:03:51;;;;;;;2.05;1.17;;;;;;;;;;4545861;28;20033;-57
2022/08/04 02:06:36;;;;;;;3.55;1.50;;;;;;;;;;4545741;28;20047;-58
2022/08/04 02:09:28;;;;;;;1.80;1.55;;;;;;;;;;4545523;28;20041;-59
2022/08/04 02:11:40;;;;;;;2.58;1.60;;;;;;;;;;4507718;28;20046;-58
2022/08/04 02:13:57;;;;;;;1.77;1.40;;;;;;;;;;4529983;28;20037;-58
2022/08/04 02:16:11;;;;;;;2.22;1.73;;;;;;;;;;4531989;28;20048;-58
2022/08/04 02:18:32;;;;;;;2.00;1.50;;;;;;;;;;4547144;28;20033;-58
2022/08/04 02:20:45;;;;;;;2.13;1.50;;;;;;;;;;4537261;28;20080;-57
2022/08/04 02:23:03;;;;;;;1.85;1.50;;;;;;;;;;4531613;28;20639;-58
2022/08/04 02:25:45;;;;;;;3.67;1.90;;;;;;;;;;4546952;28;20048;-58
2022/08/04 02:28:45;;;;;;;1.90;1.50;;;;;;;;;;4511297;28;20037;-58
2022/08/04 02:31:14;;;;;;;2.05;1.48;;;;;;;;;;4434204;28;20059;-57
2022/08/04 02:33:41;;;;;;;1.98;1.45;;;;;;;;;;4527966;28;20045;-58
2022/08/04 02:35:56;;;;;;;2.10;1.70;;;;;;;;;;4529594;28;20132;-58
2022/08/04 02:38:48;;;;;;;1.92;1.55;;;;;;;;;;4528564;28;20060;-58
2022/08/04 02:41:00;;;;;;;2.25;1.45;;;;;;;;;;4456245;28;20293;-58
2022/08/04 02:43:11;;;;;;;1.70;1.50;;;;;;;;;;4456535;28;20047;-58
2022/08/04 02:45:24;;;;;;;2.42;1.52;;;;;;;;;;4455795;28;20094;-58
2022/08/04 02:47:34;;;;;;;2.58;1.98;;;;;;;;;;4447511;28;20602;-58
2022/08/04 02:49:45;;;;;;;2.38;1.50;;;;;;;;;;4439668;28;20048;-58
2022/08/04 02:51:56;;;;;;;2.47;1.50;;;;;;;;;;4457122;28;20632;-58
2022/08/04 02:54:07;;;;;;;1.83;1.40;;;;;;;;;;4443552;28;20051;-57
2022/08/04 02:56:19;;;;;;;1.70;1.45;;;;;;;;;;4459239;28;20045;-58
2022/08/04 02:58:34;;;;;;;1.85;1.55;;;;;;;;;;4460731;28;20050;-58
2022/08/04 03:00:44;;;;;;;2.10;1.52;;;;;;;;;;4450964;28;20043;-57
2022/08/04 03:03:10;;;;;;;2.05;1.50;;;;;;;;;;4459269;28;20031;-57
2022/08/04 03:05:25;;;;;;;1.90;1.42;;;;;;;;;;4460212;28;20051;-58
2022/08/04 03:07:41;;;;;;;2.08;1.55;;;;;;;;;;4444471;28;20050;-58
2022/08/04 03:10:06;;;;;;;2.47;1.50;;;;;;;;;;4459311;28;20039;-58
2022/08/04 03:12:42;;;;;;;2.08;1.50;;;;;;;;;;4493599;28;20045;-58
2022/08/04 03:15:04;;;;;;;2.67;1.70;;;;;;;;;;4530206;28;20033;-57
2022/08/04 03:17:36;;;;;;;2.00;1.50;;;;;;;;;;4529826;28;20540;-57
2022/08/04 03:19:56;;;;;;;2.00;1.30;;;;;;;;;;4531356;28;20543;-58
2022/08/04 03:22:29;;;;;;;1.75;1.40;;;;;;;;;;4529706;28;20042;-58
2022/08/04 03:25:05;;;;;;;1.77;1.38;;;;;;;;;;4514603;28;20033;-58
2022/08/04 03:27:57;;;;;;;1.60;1.50;;;;;;;;;;4502888;28;20060;-58
2022/08/04 03:30:14;;;;;;;1.73;1.50;;;;;;;;;;4517110;28;20592;-58
2022/08/04 03:32:44;;;;;;;2.45;1.63;;;;;;;;;;4531061;28;21417;-58
2022/08/04 03:35:15;;;;;;;1.95;1.60;;;;;;;;;;4515648;28;20160;-58
2022/08/04 03:37:45;;;;;;;2.20;1.40;;;;;;;;;;4512574;28;20038;-58
2022/08/04 03:40:14;;;;;;;2.40;1.50;;;;;;;;;;4532176;28;20626;-57
2022/08/04 03:42:53;;;;;;;1.80;1.40;;;;;;;;;;4529706;28;20041;-57
2022/08/04 03:45:22;;;;;;;1.73;1.40;;;;;;;;;;4529795;28;20034;-57
2022/08/04 03:47:53;;;;;;;1.95;1.50;;;;;;;;;;4521245;28;20130;-58
2022/08/04 03:50:17;;;;;;;2.42;1.60;;;;;;;;;;4511079;28;20108;-58
2022/08/04 03:53:10;;;;;;;3.90;1.80;;;;;;;;;;4512852;28;20650;-57
2022/08/04 03:55:28;;;;;;;2.22;1.60;;;;;;;;;;4517337;28;20046;-58
2022/08/04 03:57:57;;;;;;;2.88;1.73;;;;;;;;;;4514045;28;20030;-57
2022/08/04 04:00:11;;;;;;;1.83;1.50;;;;;;;;;;4515203;28;20049;-58
2022/08/04 04:02:24;;;;;;;;;;;;;;;;;;4529726;28;20252;-58
2022/08/04 04:04:52;;;;;;;2.28;1.63;;;;;;;;;;4516054;28;19920;-58
2022/08/04 04:07:18;;;;;;;1.90;1.60;;;;;;;;;;4531191;28;20119;-58
2022/08/04 04:10:05;;;;;;;3.67;1.70;;;;;;;;;;4531865;28;20056;-58
2022/08/04 04:12:53;;;;;;;2.20;1.70;;;;;;;;;;4529426;28;20610;-58
2022/08/04 04:15:37;;;;;;;2.40;1.50;;;;;;;;;;4530598;28;20034;-57
2022/08/04 04:17:54;;;;;;;2.90;1.65;;;;;;;;;;4512055;28;20121;-58
2022/08/04 04:20:33;;;;;;;3.85;1.63;;;;;;;;;;4512837;28;20045;-57
2022/08/04 04:22:59;;;;;;;2.30;1.42;;;;;;;;;;4524198;28;20597;-57
2022/08/04 04:25:35;;;;;;;1.73;1.50;;;;;;;;;;4529868;28;20601;-57
2022/08/04 04:28:10;;;;;;;2.17;1.67;;;;;;;;;;4528665;28;20025;-58
2022/08/04 04:30:38;;;;;;;2.70;1.90;;;;;;;;;;4528779;28;20223;-57
2022/08/04 04:33:07;;;;;;;2.13;1.50;;;;;;;;;;4528394;28;20037;-57
2022/08/04 04:35:36;;;;;;;1.60;1.50;;;;;;;;;;4528915;28;20064;-57
2022/08/04 04:38:10;;;;;;;2.22;1.40;;;;;;;;;;4528299;28;20044;-58
2022/08/04 04:40:44;;;;;;;2.33;1.52;;;;;;;;;;4529264;28;20029;-57
2022/08/04 04:43:45;;;;;;;2.03;1.50;;;;;;;;;;4529165;28;20041;-58
2022/08/04 04:46:12;;;;;;;2.10;1.50;;;;;;;;;;4514834;28;20103;-57
2022/08/04 04:48:25;;;;;;;2.95;1.50;;;;;;;;;;4536981;28;20037;-58
2022/08/04 04:50:52;;;;;;;1.67;1.40;;;;;;;;;;4528592;28;20045;-59
2022/08/04 04:53:08;;;;;;;2.42;1.70;;;;;;;;;;4531040;28;20196;-57
2022/08/04 04:55:34;;;;;;;1.70;1.25;;;;;;;;;;4528832;28;20599;-57
2022/08/04 04:57:45;;;;;;;2.20;1.55;;;;;;;;;;4529160;28;20108;-59
2022/08/04 04:59:58;;;;;;;2.00;1.58;;;;;;;;;;4536629;28;20033;-58
2022/08/04 05:02:46;;;;;;;2.25;1.50;;;;;;;;;;4527979;28;20037;-57
2022/08/04 05:05:03;;;;;;;2.58;1.52;;;;;;;;;;4530103;28;20041;-58
2022/08/04 05:07:28;;;;;;;2.20;1.80;;;;;;;;;;4528671;28;20824;-58
2022/08/04 05:09:49;;;;;;;2.33;1.55;;;;;;;;;;4528598;28;20048;-57
2022/08/04 05:12:36;;;;;;;1.83;1.10;;;;;;;;;;4528786;28;20056;-58
2022/08/04 05:14:49;;;;;;;2.10;1.45;;;;;;;;;;4526029;28;20048;-58
2022/08/04 05:17:04;;;;;;;1.70;1.38;;;;;;;;;;4531174;28;20618;-58
2022/08/04 05:19:56;;;;;;;2.40;1.50;;;;;;;;;;4528849;28;20045;-57
2022/08/04 05:22:11;;;;;;;2.53;1.40;;;;;;;;;;4526848;28;20040;-58
2022/08/04 05:24:22;;;;;;;2.08;1.50;;;;;;;;;;4531002;28;21340;-58
2022/08/04 05:26:38;;;;;;;2.53;1.40;;;;;;;;;;4529866;28;20116;-57
2022/08/04 05:28:53;;;;;;;3.57;1.73;;;;;;;;;;4547633;28;20592;-56
2022/08/04 05:31:11;;;;;;;3.22;1.70;;;;;;;;;;4548214;28;20092;-57
2022/08/04 05:33:26;;;;;;;1.73;1.30;;;;;;;;;;4530765;28;20041;-56
2022/08/04 05:35:42;;;;;;;1.80;1.60;;;;;;;;;;4515277;28;20647;-57
2022/08/04 05:37:53;;;;;;;2.88;1.50;;;;;;;;;;4529592;28;20033;-56
2022/08/04 05:40:06;;;;;;;2.35;1.30;;;;;;;;;;4529767;28;20064;-56
2022/08/04 05:42:16;;;;;;;3.42;1.98;;;;;;;;;;4546106;28;21198;-57
2022/08/04 05:44:27;;;;;;;2.03;1.70;;;;;;;;;;4515661;28;20045;-56
2022/08/04 05:46:38;;;;;;;2.40;1.63;;;;;;;;;;4545482;28;20065;-57
2022/08/04 05:48:49;;;;;;;2.28;1.50;;;;;;;;;;4526759;28;20145;-57
2022/08/04 05:51:00;;;;;;;2.08;1.25;;;;;;;;;;4545917;28;20033;-57
2022/08/04 05:53:12;;;;;;;2.53;1.40;;;;;;;;;;4527559;28;20580;-57
2022/08/04 05:55:24;;;;;;;2.20;1.73;;;;;;;;;;4533020;28;20087;-57
2022/08/04 05:57:35;;;;;;;1.65;1.45;;;;;;;;;;4545214;28;20033;-56
2022/08/04 05:59:47;;;;;;;2.42;1.38;;;;;;;;;;4531105;28;20580;-57
2022/08/04 06:01:59;;;;;;;2.63;1.70;;;;;;;;;;4532302;28;20037;-56
2022/08/04 06:04:10;;;;;;;2.08;1.52;;;;;;;;;;4545109;28;20567;-57
2022/08/04 06:06:21;;;;;;;2.60;1.70;;;;;;;;;;4546254;28;20024;-56
2022/08/04 06:08:32;;;;;;;2.53;2.00;;;;;;;;;;4547048;28;20032;-57
2022/08/04 06:10:43;;;;;;;1.95;1.70;;;;;;;;;;4546084;28;20533;-57
2022/08/04 06:13:06;;;;;;;1.90;1.60;;;;;;;;;;4546016;28;20792;-57
2022/08/04 06:15:19;;;;;;;1.58;1.42;;;;;;;;;;4537205;28;20037;-57
2022/08/04 06:17:34;;;;;;;2.55;1.55;;;;;;;;;;4545349;28;20032;-57
2022/08/04 06:19:46;;;;;;;1.83;1.60;;;;;;;;;;4546129;28;20033;-56
2022/08/04 06:21:58;;;;;;;2.00;1.35;;;;;;;;;;4545635;28;20029;-57
2022/08/04 06:24:11;;;;;;;2.67;1.88;;;;;;;;;;4528812;28;20132;-56
2022/08/04 06:26:22;;;;;;;2.40;1.70;;;;;;;;;;4531218;28;20038;-56
2022/08/04 06:28:32;;;;;;;2.70;1.98;;;;;;;;;;4530794;28;20026;-56
2022/08/04 06:30:46;;;;;;;2.63;1.77;;;;;;;;;;4532188;28;20045;-56
2022/08/04 06:33:01;;;;;;;2.33;1.90;;;;;;;;;;4530863;28;20025;-57
2022/08/04 06:35:17;;;;;;;2.10;1.60;;;;;;;;;;4549610;28;20060;-57
2022/08/04 06:37:28;;;;;;;2.00;1.80;;;;;;;;;;4533533;28;20691;-56
2022/08/04 06:39:38;;;;;;;3.90;1.85;;;;;;;;;;4530281;28;20033;-56
2022/08/04 06:41:50;;;;;;;3.22;1.90;;;;;;;;;;4530396;28;20032;-57
2022/08/04 06:44:02;;;;;;;1.90;1.70;;;;;;;;;;4532870;28;20536;-57
2022/08/04 06:46:13;;;;;;;2.45;1.85;;;;;;;;;;4534205;28;20100;-56
2022/08/04 06:48:24;;;;;;;2.55;1.73;;;;;;;;;;4518078;28;20041;-56
2022/08/04 06:50:36;;;;;;;2.15;1.70;;;;;;;;;;4548488;28;20090;-56
2022/08/04 06:52:47;;;;;;;2.58;1.80;;;;;;;;;;4517010;28;20034;-56
2022/08/04 06:54:57;;;;;;;2.20;1.80;;;;;;;;;;4549631;28;20094;-56
2022/08/04 06:57:08;;;;;;;2.13;1.90;;;;;;;;;;4548369;28;20041;-56
2022/08/04 06:59:21;;;;;;;2.25;1.92;;;;;;;;;;4516651;28;20589;-57
2022/08/04 07:01:31;;;;;;;2.45;2.00;;;;;;;;;;4518225;28;20040;-57
2022/08/04 07:03:42;;;;;;;2.47;1.95;;;;;;;;;;4548549;28;20551;-57
2022/08/04 07:05:53;;;;;;;2.05;1.80;;;;;;;;;;4525952;28;20045;-57
2022/08/04 07:08:04;;;;;;;1.98;1.77;;;;;;;;;;4547448;28;20037;-57
2022/08/04 07:10:15;;;;;;;2.20;1.90;;;;;;;;;;4547872;28;20949;-56
2022/08/04 07:12:27;;;;;;;2.10;1.85;;;;;;;;;;4531573;28;21208;-57
2022/08/04 07:14:39;;;;;;;2.15;1.90;;;;;;;;;;4531622;28;20096;-57
2022/08/04 07:16:49;;;;;;;2.33;1.60;;;;;;;;;;4548032;28;20570;-58
2022/08/04 07:19:00;;;;;;;2.17;1.73;;;;;;;;;;4530334;28;20080;-57
2022/08/04 07:21:21;;;;;;;1.70;1.60;;;;;;;;;;4548181;28;20075;-57
2022/08/04 07:23:31;;;;;;;2.10;1.73;;;;;;;;;;4530909;28;20040;-59
2022/08/04 07:25:42;;;;;;;1.90;1.70;;;;;;;;;;4530720;28;20044;-58
2022/08/04 07:27:53;;;;;;;1.50;1.40;;;;;;;;;;4539736;28;20716;-59
2022/08/04 07:30:07;;;;;;;1.90;1.50;;;;;;;;;;4548163;28;20744;-58
2022/08/04 07:32:19;;;;;;;1.50;1.40;;;;;;;;;;4532962;28;21498;-58
2022/08/04 07:34:31;;;;;;;1.35;1.20;;;;;;;;;;4546856;28;20777;-58
2022/08/04 07:36:42;;;;;;;1.73;1.50;;;;;;;;;;4529398;28;20584;-58
2022/08/04 07:38:52;;;;;;;2.28;1.40;;;;;;;;;;4547253;28;20115;-58
2022/08/04 07:41:04;;;;;;;2.38;1.60;;;;;;;;;;4548405;28;20118;-58
2022/08/04 07:43:15;;;;;;;2.13;1.63;;;;;;;;;;4547308;28;20593;-59
2022/08/04 07:45:26;;;;;;;1.50;1.40;;;;;;;;;;4530813;28;20033;-58
2022/08/04 07:47:39;;;;;;;1.67;1.50;;;;;;;;;;4548538;28;20045;-58
2022/08/04 07:49:49;;;;;;;2.30;1.50;;;;;;;;;;4547727;28;20730;-58
2022/08/04 07:52:01;;;;;;;1.83;1.50;;;;;;;;;;4531597;28;20037;-58
2022/08/04 07:54:12;;;;;;;1.85;1.40;;;;;;;;;;4529679;28;20041;-58
2022/08/04 07:56:27;;;;;;;1.80;1.40;;;;;;;;;;4531737;28;20651;-57
2022/08/04 07:58:37;;;;;;;1.65;1.42;;;;;;;;;;4548882;28;20040;-59
2022/08/04 08:00:48;;;;;;;1.70;1.30;;;;;;;;;;4548738;28;20036;-58
2022/08/04 08:02:59;;;;;;;1.60;1.45;;;;;;;;;;4547786;28;20036;-58
2022/08/04 08:05:12;;;;;;;1.42;1.33;;;;;;;;;;4533403;28;20930;-58
2022/08/04 08:07:22;;;;;;;1.40;1.30;;;;;;;;;;4547023;28;20787;-58
2022/08/04 08:09:33;;;;;;;1.95;1.55;;;;;;;;;;4534551;28;20029;-57
2022/08/04 08:11:46;;;;;;;2.30;1.50;;;;;;;;;;4547870;28;20047;-58
2022/08/04 08:13:56;;;;;;;1.73;1.42;;;;;;;;;;4547374;28;20654;-58
2022/08/04 08:16:07;;;;;;;1.40;1.30;;;;;;;;;;4547859;28;20066;-58
2022/08/04 08:18:17;;;;;;;1.30;1.20;;;;;;;;;;4530696;28;20036;-59
2022/08/04 08:20:29;;;;;;;1.30;1.20;;;;;;;;;;4547492;28;20116;-62
2022/08/04 08:22:40;;;;;;;1.73;1.20;;;;;;;;;;4549455;28;20036;-59
2022/08/04 08:24:50;;;;;;;1.50;1.40;;;;;;;;;;4528625;28;20433;-59
2022/08/04 08:27:03;;;;;;;1.20;1.10;;;;;;;;;;4529485;28;20041;-59
2022/08/04 08:29:14;;;;;;;1.50;1.40;;;;;;;;;;4546749;28;20851;-65
2022/08/04 08:31:25;;;;;;;1.50;1.20;;;;;;;;;;4529282;28;20029;-58
2022/08/04 08:33:36;;;;;;;1.60;1.38;;;;;;;;;;4545932;28;20091;-57
2022/08/04 08:36:08;;;;;;;2.10;1.20;;;;;;;;;;4547300;28;20040;-57
2022/08/04 08:38:23;;;;;;;1.75;1.30;;;;;;;;;;4531338;28;20060;-57
2022/08/04 08:40:45;;;;;;;1.30;1.20;;;;;;;;;;4547731;28;20641;-57
2022/08/04 08:43:26;;;;;;;1.17;1.08;;;;;;;;;;4533334;28;20088;-57
2022/08/04 08:45:42;;;;;;;1.52;1.38;;;;;;;;;;4546796;28;20095;-57
2022/08/04 08:48:27;;;;;;;1.63;1.40;;;;;;;;;;4546344;28;20136;-57
2022/08/04 08:50:38;;;;;;;1.55;1.20;;;;;;;;;;4532134;28;20044;-57
2022/08/04 08:53:07;;;;;;;1.38;1.17;;;;;;;;;;4546688;28;20066;-58
2022/08/04 08:55:30;;;;;;;1.45;1.00;;;;;;;;;;4529047;28;20045;-58
2022/08/04 08:57:55;;;;;;;1.58;1.33;;;;;;;;;;4545004;28;20037;-57
2022/08/04 09:00:15;;;;;;;1.88;1.63;;;;;;;;;;4546785;28;20842;-56
2022/08/04 09:02:54;;;;;;;3.10;2.20;;;;;;;;;;4531931;28;20044;-57
2022/08/04 09:05:32;;;;;;;3.50;2.38;;;;;;;;;;4543332;28;20048;-58
2022/08/04 09:08:24;;;;;;;3.65;2.60;;;;;;;;;;4546231;28;20044;-57
2022/08/04 09:10:40;;;;;;;3.75;2.70;;;;;;;;;;4478339;28;20041;-57
2022/08/04 09:13:03;;;;;;;3.33;2.55;;;;;;;;;;4528767;28;20041;-57
2022/08/04 09:15:17;;;;;;;3.55;2.60;;;;;;;;;;4529442;28;20045;-58
2022/08/04 09:17:51;;;;;;;3.92;2.83;;;;;;;;;;4532264;28;20119;-57
2022/08/04 09:20:06;;;;;;;3.72;2.60;;;;;;;;;;4496237;28;20041;-57
2022/08/04 09:22:28;;;;;;;4.20;3.10;;;;;;;;;;4547024;28;20070;-57
2022/08/04 09:25:06;;;;;;;3.78;2.83;;;;;;;;;;4511822;28;20034;-57
2022/08/04 09:27:19;;;;;;;5.70;3.70;;;;;;;;;;4547344;28;20130;-57
2022/08/04 09:29:42;;;;;;;5.35;3.65;;;;;;;;;;4547769;28;20171;-57
2022/08/04 09:32:12;;;;;;;4.60;3.10;;;;;;;;;;4515897;28;20037;-57
2022/08/04 09:34:31;;;;;;;4.75;3.08;;;;;;;;;;4528315;28;20093;-57
2022/08/04 09:36:59;;;;;;;4.45;3.22;;;;;;;;;;4530394;28;20033;-57
2022/08/04 09:39:21;;;;;;;5.63;3.88;;;;;;;;;;4531349;28;21570;-57
2022/08/04 09:41:59;;;;;;;7.75;3.80;;;;;;;;;;4546320;28;20040;-57
2022/08/04 09:44:12;;;;;;;7.65;4.40;;;;;;;;;;4545875;28;20170;-58
2022/08/04 09:46:36;;;;;;;9.10;4.82;;;;;;;;;;4545135;28;20032;-57
2022/08/04 09:49:01;;;;;;;7.72;5.05;;;;;;;;;;4533613;28;20085;-57
2022/08/04 09:51:45;;;;;;;7.32;4.78;;;;;;;;;;4547241;28;20094;-57
2022/08/04 09:54:15;;;;;;;6.25;4.00;;;;;;;;;;4547478;28;20119;-57
2022/08/04 09:56:31;;;;;;;6.80;3.70;;;;;;;;;;4534888;28;20033;-57
2022/08/04 09:59:09;;;;;;;6.50;4.20;;;;;;;;;;4532521;28;20120;-57
2022/08/04 10:01:23;;;;;;;7.00;3.70;;;;;;;;;;4532257;28;20702;-57
2022/08/04 10:03:48;;;;;;;4.47;3.25;;;;;;;;;;4520460;28;20544;-57
2022/08/04 10:06:14;;;;;;;3.75;2.90;;;;;;;;;;4537849;28;20082;-57
2022/08/04 10:08:35;;;;;;;3.85;2.50;;;;;;;;;;4538332;28;20596;-58
2022/08/04 10:11:08;;;;;;;4.10;3.22;;;;;;;;;;4546798;28;20041;-57
2022/08/04 10:13:36;;;;;;;3.25;2.22;;;;;;;;;;4528538;28;20041;-57
2022/08/04 10:16:16;;;;;;;2.97;2.25;;;;;;;;;;4530916;28;20841;-57
2022/08/04 10:18:45;;;;;;;2.83;2.00;;;;;;;;;;4527364;28;20069;-57
2022/08/04 10:21:24;;;;;;;3.05;2.10;;;;;;;;;;4547259;28;20116;-57
2022/08/04 10:23:57;;;;;;;2.85;1.80;;;;;;;;;;4532379;28;20038;-57
2022/08/04 10:26:25;;;;;;;2.53;1.80;;;;;;;;;;4545934;28;20037;-57
2022/08/04 10:28:42;;;;;;;2.85;2.00;;;;;;;;;;4529941;28;20044;-57
2022/08/04 10:31:02;;;;;;;2.22;1.80;;;;;;;;;;4531965;28;20048;-57
2022/08/04 10:33:22;;;;;;;2.28;1.80;;;;;;;;;;4530920;28;20652;-57
2022/08/04 10:35:37;;;;;;;3.78;1.75;;;;;;;;;;4546498;28;20151;-57
2022/08/04 10:38:07;;;;;;;1.88;1.65;;;;;;;;;;4531390;28;20041;-57
2022/08/04 10:40:35;;;;;;;2.47;1.85;;;;;;;;;;4531601;28;20033;-57
2022/08/04 10:42:57;;;;;;;1.90;1.60;;;;;;;;;;4536660;28;20080;-57
2022/08/04 10:45:25;;;;;;;1.92;1.50;;;;;;;;;;4529485;28;21326;-57
2022/08/04 10:47:42;;;;;;;1.98;1.50;;;;;;;;;;4531334;28;20076;-56
2022/08/04 10:49:59;;;;;;;1.60;1.40;;;;;;;;;;4530610;28;20048;-57
2022/08/04 10:52:25;;;;;;;2.05;1.60;;;;;;;;;;4520663;28;20064;-56
2022/08/04 10:54:44;;;;;;;2.00;1.60;;;;;;;;;;4527804;28;21807;-57
2022/08/04 10:57:07;;;;;;;1.73;1.30;;;;;;;;;;4544552;28;20045;-57
2022/08/04 10:59:23;;;;;;;1.75;1.33;;;;;;;;;;4530755;28;20497;-57
2022/08/04 11:01:39;;;;;;;1.40;1.20;;;;;;;;;;4531195;28;20038;-57
2022/08/04 11:03:59;;;;;;;2.08;1.50;;;;;;;;;;4545518;28;20033;-57
2022/08/04 11:06:10;;;;;;;1.70;1.35;;;;;;;;;;4528001;28;20263;-56
2022/08/04 11:08:45;;;;;;;1.35;1.20;;;;;;;;;;4531019;28;20152;-56
2022/08/04 11:10:59;;;;;;;2.45;1.38;;;;;;;;;;4544766;28;20540;-57
2022/08/04 11:13:11;;;;;;;1.48;1.20;;;;;;;;;;4529321;28;20041;-56
2022/08/04 11:15:24;;;;;;;2.00;1.45;;;;;;;;;;4519274;28;20037;-57
2022/08/04 11:17:38;;;;;;;2.28;1.40;;;;;;;;;;4534585;28;20119;-57
2022/08/04 11:20:04;;;;;;;1.77;1.40;;;;;;;;;;4546795;28;20047;-57
2022/08/04 11:22:21;;;;;;;1.33;1.20;;;;;;;;;;4532872;28;20037;-57
2022/08/04 11:24:51;;;;;;;;;;;;;;;;;;4548950;28;20130;-56
2022/08/04 11:27:11;;;;;;;1.77;1.27;;;;;;;;;;4547127;28;19928;-56
2022/08/04 11:29:49;;;;;;;1.73;1.40;;;;;;;;;;4534104;28;20029;-57
2022/08/04 11:32:02;;;;;;;2.25;1.40;;;;;;;;;;4547903;28;20076;-56
2022/08/04 11:34:26;;;;;;;2.35;1.40;;;;;;;;;;4533343;28;20048;-56
2022/08/04 11:36:50;;;;;;;1.55;1.30;;;;;;;;;;4547375;28;20622;-57
2022/08/04 11:39:17;;;;;;;2.03;1.40;;;;;;;;;;4528583;28;20041;-56
2022/08/04 11:41:47;;;;;;;;;;;;;;;;;;4533472;28;20096;-56
2022/08/04 11:43:58;;;;;;;1.80;1.27;;;;;;;;;;4548821;28;19987;-57
2022/08/04 11:46:13;;;;;;;1.25;1.15;;;;;;;;;;4533866;28;21353;-56
2022/08/04 11:48:30;;;;;;;1.92;1.10;;;;;;;;;;4535535;28;20036;-57
2022/08/04 11:50:47;;;;;;;;;;;;;;;;;;4533696;28;20045;-56
2022/08/04 11:52:58;;;;;;;1.80;1.20;;;;;;;;;;4514404;28;20419;-56
2022/08/04 11:55:10;;;;;;;1.10;1.00;;;;;;;;;;4549227;28;20584;-57
2022/08/04 11:57:22;;;;;;;2.75;1.30;;;;;;;;;;4514275;28;20073;-56
2022/08/04 11:59:34;;;;;;;1.20;1.10;;;;;;;;;;4546475;28;20036;-56
2022/08/04 12:02:06;;;;;;;1.20;1.00;;;;;;;;;;4533584;28;20611;-55
2022/08/04 12:04:46;;;;;;;1.05;0.95;;;;;;;;;;4546688;28;20051;-57
2022/08/04 12:07:08;;;;;;;1.75;1.20;;;;;;;;;;4546157;28;20091;-56
2022/08/04 12:09:28;;;;;;;1.40;1.13;;;;;;;;;;4531753;28;20119;-56
2022/08/04 12:11:48;;;;;;;1.20;1.00;;;;;;;;;;4528765;28;20043;-56
2022/08/04 12:13:59;;;;;;;1.08;0.98;;;;;;;;;;4531300;28;20600;-56
2022/08/04 12:16:35;;;;;;;1.10;1.00;;;;;;;;;;4546920;28;20472;-56
2022/08/04 12:19:00;;;;;;;1.50;1.10;;;;;;;;;;4532862;28;20083;-56
2022/08/04 12:21:22;;;;;;;1.10;1.00;;;;;;;;;;4530571;28;20033;-57
2022/08/04 12:23:37;;;;;;;1.10;1.00;;;;;;;;;;4530357;28;20042;-56
2022/08/04 12:25:49;;;;;;;1.17;1.00;;;;;;;;;;4538024;28;20648;-56
2022/08/04 12:28:05;;;;;;;1.75;1.13;;;;;;;;;;4530422;28;20061;-56
2022/08/04 12:30:17;;;;;;;1.40;1.00;;;;;;;;;;4534011;28;20608;-56
2022/08/04 12:32:30;;;;;;;1.25;0.98;;;;;;;;;;4546575;28;20048;-56
2022/08/04 12:35:26;;;;;;;1.48;1.00;;;;;;;;;;4548430;28;20033;-57
2022/08/04 12:38:01;;;;;;;1.20;0.93;;;;;;;;;;4546729;28;20845;-56
2022/08/04 12:40:16;;;;;;;0.80;0.75;;;;;;;;;;4532978;28;20029;-56
2022/08/04 12:42:37;;;;;;;1.25;0.90;;;;;;;;;;4529110;28;20035;-56
2022/08/04 12:44:52;;;;;;;1.08;0.80;;;;;;;;;;4529221;28;20044;-56
2022/08/04 12:47:05;;;;;;;1.08;0.90;;;;;;;;;;4532426;28;20040;-57
2022/08/04 12:49:16;;;;;;;1.92;0.90;;;;;;;;;;4527756;28;20033;-56
2022/08/04 12:51:27;;;;;;;1.17;0.90;;;;;;;;;;4527645;28;20045;-56
2022/08/04 12:53:40;;;;;;;1.95;1.10;;;;;;;;;;4547648;28;20091;-56
2022/08/04 12:55:51;;;;;;;0.95;0.90;;;;;;;;;;4531008;28;20488;-56
2022/08/04 12:58:12;;;;;;;0.73;0.70;;;;;;;;;;4527891;28;20631;-56
2022/08/04 13:00:34;;;;;;;1.10;0.75;;;;;;;;;;4531997;28;20200;-57
2022/08/04 13:02:45;;;;;;;0.82;0.80;;;;;;;;;;4529567;28;20653;-57
2022/08/04 13:04:59;;;;;;;0.80;0.70;;;;;;;;;;4547806;28;20044;-57
2022/08/04 13:07:17;;;;;;;0.77;0.70;;;;;;;;;;4544883;28;20099;-57
2022/08/04 13:09:32;;;;;;;1.10;0.70;;;;;;;;;;4532266;28;20079;-57
2022/08/04 13:11:53;;;;;;;0.80;0.80;;;;;;;;;;4548535;28;20055;-57
2022/08/04 13:14:05;;;;;;;1.00;0.80;;;;;;;;;;4538596;28;20049;-57
2022/08/04 13:16:16;;;;;;;1.15;0.80;;;;;;;;;;4532412;28;20071;-57
2022/08/04 13:18:29;;;;;;;1.02;0.90;;;;;;;;;;4545598;28;20530;-57
2022/08/04 13:20:39;;;;;;;0.93;0.82;;;;;;;;;;4531605;28;20580;-57
2022/08/04 13:22:50;;;;;;;0.80;0.70;;;;;;;;;;4545406;28;20036;-56
2022/08/04 13:25:01;;;;;;;1.75;0.77;;;;;;;;;;4545251;28;20087;-56
2022/08/04 13:27:12;;;;;;;0.77;0.70;;;;;;;;;;4545096;28;20056;-57
2022/08/04 13:29:24;;;;;;;1.00;0.80;;;;;;;;;;4527993;28;20124;-56
2022/08/04 13:31:35;;;;;;;0.88;0.80;;;;;;;;;;4546556;28;20045;-57
2022/08/04 13:33:48;;;;;;;0.75;0.63;;;;;;;;;;4531739;28;20561;-56
2022/08/04 13:36:00;;;;;;;0.73;0.70;;;;;;;;;;4514196;28;20757;-56
2022/08/04 13:38:12;;;;;;;1.00;0.80;;;;;;;;;;4519288;28;20100;-57
2022/08/04 13:40:24;;;;;;;0.60;0.60;;;;;;;;;;4547003;28;20029;-57
2022/08/04 13:42:35;;;;;;;0.90;0.70;;;;;;;;;;4528843;28;20036;-56
2022/08/04 13:44:48;;;;;;;0.98;0.70;;;;;;;;;;4530475;28;20700;-56
2022/08/04 13:47:04;;;;;;;1.17;0.70;;;;;;;;;;4528944;28;20100;-56
2022/08/04 13:49:19;;;;;;;1.20;0.82;;;;;;;;;;4532753;28;20158;-57
2022/08/04 13:51:29;;;;;;;1.40;0.80;;;;;;;;;;4541791;28;20057;-56
2022/08/04 13:53:41;;;;;;;0.90;0.70;;;;;;;;;;4527300;28;20124;-56
2022/08/04 13:55:56;;;;;;;1.15;0.80;;;;;;;;;;4531694;28;20037;-57
2022/08/04 13:58:22;;;;;;;0.73;0.73;;;;;;;;;;4545757;28;20028;-56